Terminal Aerodrome Forecast
Issued by NWS

Home | Current Version | Previous Version | Text Only | Print | Product List | Glossary On
Versions: 1 2 3 4 5 6 7 8 9 10 11 12 13 14 15 16 17 18 19 20 21 22 23 24 25 26 27 28
000
FTUS45 KREV 210520
TAFTVL
TAF
KTVL 210520Z 2106/2206 18009G18KT 5SM SHRA SCT015 OVC025
     FM210800 19011KT P6SM VCSH BKN035
     FM211800 19007KT P6SM -SHRA BKN030 OVC045
     FM220200 VRB03KT P6SM BKN035=

USA.gov is the U.S. government's official web portal to all federal, state and local government web resources and services.